ACA856 CYYZ-CYQB
Flight info
| Callsign | ACA856 |
|---|---|
| Flight time | 1h 0m |
| Altitude | 37000 |
| Route | VERDO7 IPTOS Q921 AGLUK PESAC4 |
| Aircraft | B77W/H-SDE1E2E3FGHIJ2J3J4J5M1RWXY/LB1D1 |
Departure
| Time | 2026-05-06 20:52 |
|---|---|
| Airport | Toronto Pearson International Airport (CYYZ) |
Arrival
| Time | 2026-05-06 21:53 |
|---|---|
| Airport | Quebec Jean Lesage International Airport (CYQB) |
| Time | Latitude | Longitude | Altitude | Speed | Heading |
|---|---|---|---|---|---|
| 2026-05-06 20:26 | 43.67612 | -79.61024 | 574 ft | 0 kts | 330° |
| 2026-05-06 20:43 | 43.67601 | -79.61016 | 566 ft | 2 kts | 330° |
| 2026-05-06 20:43 | 43.67587 | -79.61005 | 575 ft | 2 kts | 330° |
| 2026-05-06 20:43 | 43.67573 | -79.60994 | 574 ft | 2 kts | 330° |
| 2026-05-06 20:44 | 43.67552 | -79.60978 | 575 ft | 4 kts | 325° |
| 2026-05-06 20:44 | 43.67545 | -79.60947 | 575 ft | 0 kts | 240° |
| 2026-05-06 20:46 | 43.67545 | -79.60948 | 575 ft | 1 kts | 240° |
| 2026-05-06 20:46 | 43.67531 | -79.60983 | 574 ft | 6 kts | 240° |
| 2026-05-06 20:47 | 43.67507 | -79.61039 | 572 ft | 7 kts | 240° |
| 2026-05-06 20:47 | 43.67474 | -79.61090 | 573 ft | 7 kts | 214° |
| 2026-05-06 20:47 | 43.67426 | -79.61099 | 574 ft | 7 kts | 175° |
| 2026-05-06 20:47 | 43.67371 | -79.61093 | 570 ft | 8 kts | 178° |
| 2026-05-06 20:48 | 43.67332 | -79.61108 | 573 ft | 9 kts | 209° |
| 2026-05-06 20:48 | 43.67286 | -79.61175 | 573 ft | 10 kts | 231° |
| 2026-05-06 20:48 | 43.67244 | -79.61247 | 573 ft | 10 kts | 232° |
| 2026-05-06 20:48 | 43.67192 | -79.61339 | 578 ft | 18 kts | 232° |
| 2026-05-06 20:49 | 43.67073 | -79.61511 | 579 ft | 29 kts | 220° |
| 2026-05-06 20:49 | 43.66919 | -79.61694 | 575 ft | 29 kts | 222° |
| 2026-05-06 20:49 | 43.66767 | -79.61882 | 577 ft | 29 kts | 221° |
| 2026-05-06 20:49 | 43.66617 | -79.62072 | 574 ft | 29 kts | 224° |
| 2026-05-06 20:50 | 43.66482 | -79.62243 | 573 ft | 18 kts | 222° |
| 2026-05-06 20:50 | 43.66388 | -79.62362 | 573 ft | 18 kts | 222° |
| 2026-05-06 20:50 | 43.66303 | -79.62437 | 569 ft | 12 kts | 174° |
| 2026-05-06 20:50 | 43.66233 | -79.62367 | 569 ft | 13 kts | 138° |
| 2026-05-06 20:51 | 43.66175 | -79.62279 | 575 ft | 13 kts | 106° |
| 2026-05-06 20:51 | 43.66207 | -79.62192 | 575 ft | 0 kts | 47° |
| 2026-05-06 20:51 | 43.66270 | -79.62099 | 576 ft | 45 kts | 46° |
| 2026-05-06 20:52 | 43.66707 | -79.61466 | 571 ft | 136 kts | 46° |
| 2026-05-06 20:52 | 43.67509 | -79.60303 | 775 ft | 185 kts | 45° |
| 2026-05-06 20:52 | 43.68398 | -79.58996 | 1735 ft | 188 kts | 44° |
| 2026-05-06 20:52 | 43.69282 | -79.57674 | 2701 ft | 188 kts | 54° |
| 2026-05-06 20:53 | 43.69556 | -79.55911 | 3330 ft | 196 kts | 98° |
| 2026-05-06 20:53 | 43.69242 | -79.54043 | 3897 ft | 206 kts | 102° |
| 2026-05-06 20:53 | 43.68897 | -79.51987 | 4170 ft | 234 kts | 102° |
| 2026-05-06 20:53 | 43.68519 | -79.49655 | 4478 ft | 264 kts | 102° |
| 2026-05-06 20:54 | 43.68119 | -79.47113 | 5155 ft | 277 kts | 102° |
| 2026-05-06 20:54 | 43.67711 | -79.44468 | 5973 ft | 286 kts | 102° |
| 2026-05-06 20:54 | 43.67297 | -79.41746 | 6833 ft | 292 kts | 103° |
| 2026-05-06 20:54 | 43.66879 | -79.38963 | 7650 ft | 299 kts | 103° |
| 2026-05-06 20:55 | 43.66454 | -79.36109 | 8448 ft | 306 kts | 104° |
| 2026-05-06 20:55 | 43.66023 | -79.33205 | 9293 ft | 312 kts | 104° |
| 2026-05-06 20:55 | 43.65584 | -79.30243 | 10090 ft | 318 kts | 105° |
| 2026-05-06 20:55 | 43.65125 | -79.27176 | 10522 ft | 338 kts | 105° |
| 2026-05-06 20:56 | 43.64854 | -79.23829 | 10697 ft | 368 kts | 90° |
| 2026-05-06 20:56 | 43.65291 | -79.20226 | 11074 ft | 391 kts | 71° |
| 2026-05-06 20:56 | 43.66390 | -79.16728 | 11801 ft | 403 kts | 63° |
| 2026-05-06 20:56 | 43.67639 | -79.13222 | 12691 ft | 412 kts | 63° |
| 2026-05-06 20:57 | 43.68885 | -79.09607 | 13697 ft | 420 kts | 64° |
| 2026-05-06 20:57 | 43.70108 | -79.05922 | 14583 ft | 427 kts | 65° |
| 2026-05-06 20:57 | 43.71271 | -79.02111 | 15481 ft | 434 kts | 71° |
| 2026-05-06 20:57 | 43.72221 | -78.98123 | 16396 ft | 440 kts | 73° |
| 2026-05-06 20:58 | 43.73145 | -78.94047 | 17292 ft | 448 kts | 74° |
| 2026-05-06 20:58 | 43.74086 | -78.89903 | 18217 ft | 455 kts | 73° |
| 2026-05-06 20:58 | 43.75052 | -78.85713 | 19014 ft | 461 kts | 73° |
| 2026-05-06 20:58 | 43.76028 | -78.81521 | 19834 ft | 466 kts | 73° |
| 2026-05-06 20:59 | 43.77051 | -78.77241 | 20652 ft | 472 kts | 71° |
| 2026-05-06 20:59 | 43.78318 | -78.73026 | 21445 ft | 477 kts | 65° |
| 2026-05-06 20:59 | 43.79758 | -78.68856 | 22215 ft | 483 kts | 64° |
| 2026-05-06 20:59 | 43.81243 | -78.64651 | 22992 ft | 489 kts | 64° |
| 2026-05-06 21:00 | 43.82750 | -78.60394 | 23741 ft | 494 kts | 64° |
| 2026-05-06 21:00 | 43.84260 | -78.56098 | 24408 ft | 498 kts | 64° |
| 2026-05-06 21:00 | 43.85773 | -78.51757 | 25099 ft | 502 kts | 64° |
| 2026-05-06 21:00 | 43.87286 | -78.47383 | 25754 ft | 506 kts | 64° |
| 2026-05-06 21:01 | 43.88808 | -78.42957 | 26407 ft | 510 kts | 64° |
| 2026-05-06 21:01 | 43.90334 | -78.38504 | 27040 ft | 514 kts | 64° |
| 2026-05-06 21:01 | 43.91872 | -78.34006 | 27647 ft | 518 kts | 64° |
| 2026-05-06 21:01 | 43.93418 | -78.29477 | 28249 ft | 521 kts | 64° |
| 2026-05-06 21:02 | 43.94975 | -78.24910 | 28844 ft | 525 kts | 64° |
| 2026-05-06 21:02 | 43.96541 | -78.20313 | 29400 ft | 529 kts | 64° |
| 2026-05-06 21:02 | 43.98118 | -78.15675 | 29938 ft | 533 kts | 64° |
| 2026-05-06 21:02 | 43.99706 | -78.10999 | 30363 ft | 537 kts | 64° |
| 2026-05-06 21:03 | 44.01302 | -78.06289 | 30715 ft | 541 kts | 64° |
| 2026-05-06 21:03 | 44.02909 | -78.01539 | 31077 ft | 545 kts | 64° |
| 2026-05-06 21:03 | 44.04501 | -77.96825 | 31578 ft | 545 kts | 64° |
| 2026-05-06 21:03 | 44.06110 | -77.92050 | 32078 ft | 545 kts | 64° |
| 2026-05-06 21:04 | 44.07717 | -77.87273 | 32530 ft | 547 kts | 64° |
| 2026-05-06 21:04 | 44.09332 | -77.82464 | 32953 ft | 548 kts | 64° |
| 2026-05-06 21:04 | 44.10943 | -77.77661 | 33404 ft | 548 kts | 64° |
| 2026-05-06 21:04 | 44.12557 | -77.72838 | 33855 ft | 549 kts | 65° |
| 2026-05-06 21:05 | 44.14168 | -77.68014 | 34224 ft | 550 kts | 64° |
| 2026-05-06 21:05 | 44.15783 | -77.63173 | 34594 ft | 551 kts | 65° |
| 2026-05-06 21:05 | 44.17396 | -77.58329 | 34964 ft | 552 kts | 65° |
| 2026-05-06 21:05 | 44.19063 | -77.53525 | 35317 ft | 552 kts | 60° |
| 2026-05-06 21:06 | 44.20985 | -77.48896 | 35668 ft | 551 kts | 56° |
| 2026-05-06 21:06 | 44.23178 | -77.44522 | 35980 ft | 550 kts | 49° |
| 2026-05-06 21:06 | 44.25582 | -77.40331 | 36156 ft | 554 kts | 48° |
| 2026-05-06 21:06 | 44.28026 | -77.36162 | 36395 ft | 556 kts | 47° |
| 2026-05-06 21:07 | 44.30480 | -77.31986 | 36722 ft | 556 kts | 47° |
| 2026-05-06 21:07 | 44.32926 | -77.27795 | 36871 ft | 559 kts | 47° |
| 2026-05-06 21:07 | 44.35380 | -77.23550 | 36903 ft | 564 kts | 48° |
| 2026-05-06 21:08 | 44.40317 | -77.14910 | 36909 ft | 572 kts | 48° |
| 2026-05-06 21:08 | 44.45250 | -77.06209 | 36902 ft | 576 kts | 49° |
| 2026-05-06 21:09 | 44.50229 | -76.97403 | 36897 ft | 576 kts | 49° |
| 2026-05-06 21:09 | 44.55196 | -76.88605 | 36892 ft | 574 kts | 49° |
| 2026-05-06 21:10 | 44.60143 | -76.79822 | 36891 ft | 573 kts | 49° |
| 2026-05-06 21:10 | 44.65084 | -76.71022 | 36893 ft | 574 kts | 49° |
| 2026-05-06 21:11 | 44.70024 | -76.62194 | 36884 ft | 574 kts | 49° |
| 2026-05-06 21:11 | 44.74946 | -76.53370 | 36890 ft | 573 kts | 49° |
| 2026-05-06 21:12 | 44.79863 | -76.44529 | 36882 ft | 574 kts | 49° |
| 2026-05-06 21:12 | 44.84778 | -76.35664 | 36881 ft | 574 kts | 49° |
| 2026-05-06 21:13 | 44.89579 | -76.26672 | 36868 ft | 575 kts | 55° |
| 2026-05-06 21:13 | 44.93429 | -76.16784 | 36874 ft | 576 kts | 65° |
| 2026-05-06 21:14 | 44.96194 | -76.06249 | 36876 ft | 576 kts | 72° |
| 2026-05-06 21:14 | 44.98704 | -75.95501 | 36871 ft | 576 kts | 72° |
| 2026-05-06 21:15 | 45.01243 | -75.84764 | 36868 ft | 576 kts | 71° |
| 2026-05-06 21:15 | 45.03818 | -75.74066 | 36866 ft | 574 kts | 71° |
| 2026-05-06 21:16 | 45.06395 | -75.63364 | 36863 ft | 574 kts | 71° |
| 2026-05-06 21:16 | 45.08954 | -75.52661 | 36862 ft | 575 kts | 72° |
| 2026-05-06 21:17 | 45.11505 | -75.41919 | 36865 ft | 575 kts | 72° |
| 2026-05-06 21:17 | 45.14040 | -75.31192 | 36869 ft | 574 kts | 72° |
| 2026-05-06 21:18 | 45.16565 | -75.20454 | 36869 ft | 573 kts | 72° |
| 2026-05-06 21:18 | 45.19057 | -75.09810 | 36870 ft | 573 kts | 72° |
| 2026-05-06 21:19 | 45.21558 | -74.99077 | 36872 ft | 573 kts | 72° |
| 2026-05-06 21:19 | 45.24355 | -74.88497 | 36861 ft | 574 kts | 63° |
| 2026-05-06 21:20 | 45.28537 | -74.78907 | 36874 ft | 571 kts | 50° |
| 2026-05-06 21:20 | 45.33827 | -74.70573 | 36871 ft | 566 kts | 43° |
| 2026-05-06 21:21 | 45.39320 | -74.62561 | 36865 ft | 566 kts | 43° |
| 2026-05-06 21:21 | 45.44778 | -74.54479 | 36867 ft | 566 kts | 43° |
| 2026-05-06 21:22 | 45.50175 | -74.46332 | 36864 ft | 565 kts | 44° |
| 2026-05-06 21:22 | 45.55557 | -74.38146 | 36857 ft | 565 kts | 44° |
| 2026-05-06 21:23 | 45.60924 | -74.29966 | 36857 ft | 564 kts | 44° |
| 2026-05-06 21:23 | 45.66286 | -74.21783 | 36854 ft | 563 kts | 44° |
| 2026-05-06 21:24 | 45.71617 | -74.13624 | 36843 ft | 554 kts | 44° |
| 2026-05-06 21:24 | 45.74232 | -74.09610 | 36300 ft | 552 kts | 44° |
| 2026-05-06 21:24 | 45.76846 | -74.05595 | 35596 ft | 550 kts | 45° |
| 2026-05-06 21:24 | 45.79445 | -74.01596 | 35012 ft | 545 kts | 45° |
| 2026-05-06 21:25 | 45.82023 | -73.97625 | 34407 ft | 542 kts | 45° |
| 2026-05-06 21:25 | 45.84582 | -73.93677 | 33708 ft | 540 kts | 46° |
| 2026-05-06 21:25 | 45.87144 | -73.89718 | 32814 ft | 541 kts | 46° |
| 2026-05-06 21:25 | 45.89705 | -73.85755 | 31860 ft | 542 kts | 46° |
| 2026-05-06 21:26 | 45.92266 | -73.81787 | 30919 ft | 543 kts | 46° |
| 2026-05-06 21:26 | 45.94833 | -73.77802 | 30008 ft | 543 kts | 46° |
| 2026-05-06 21:26 | 45.97356 | -73.73879 | 29200 ft | 539 kts | 46° |
| 2026-05-06 21:26 | 45.99884 | -73.69942 | 28509 ft | 532 kts | 46° |
| 2026-05-06 21:27 | 46.02375 | -73.66057 | 27857 ft | 525 kts | 46° |
| 2026-05-06 21:27 | 46.04839 | -73.62210 | 27217 ft | 520 kts | 46° |
| 2026-05-06 21:27 | 46.07280 | -73.58395 | 26556 ft | 516 kts | 46° |
| 2026-05-06 21:27 | 46.09697 | -73.54611 | 25874 ft | 512 kts | 46° |
| 2026-05-06 21:28 | 46.12102 | -73.50841 | 25214 ft | 509 kts | 46° |
| 2026-05-06 21:28 | 46.14494 | -73.47086 | 24585 ft | 505 kts | 46° |
| 2026-05-06 21:28 | 46.16860 | -73.43368 | 23987 ft | 501 kts | 46° |
| 2026-05-06 21:28 | 46.19208 | -73.39672 | 23388 ft | 498 kts | 46° |
| 2026-05-06 21:29 | 46.21375 | -73.35797 | 22672 ft | 494 kts | 58° |
| 2026-05-06 21:29 | 46.22799 | -73.31314 | 22005 ft | 489 kts | 72° |
| 2026-05-06 21:29 | 46.23947 | -73.26718 | 21402 ft | 484 kts | 71° |
| 2026-05-06 21:29 | 46.25194 | -73.22214 | 20822 ft | 480 kts | 69° |
| 2026-05-06 21:30 | 46.26473 | -73.17833 | 20253 ft | 477 kts | 69° |
| 2026-05-06 21:30 | 46.27760 | -73.13432 | 19665 ft | 474 kts | 69° |
| 2026-05-06 21:30 | 46.29034 | -73.09054 | 19100 ft | 470 kts | 69° |
| 2026-05-06 21:30 | 46.30290 | -73.04702 | 18556 ft | 467 kts | 69° |
| 2026-05-06 21:31 | 46.31529 | -73.00386 | 17992 ft | 464 kts | 69° |
| 2026-05-06 21:31 | 46.32762 | -72.96074 | 17388 ft | 460 kts | 69° |
| 2026-05-06 21:31 | 46.33980 | -72.91815 | 16855 ft | 455 kts | 69° |
| 2026-05-06 21:31 | 46.35182 | -72.87604 | 16335 ft | 450 kts | 69° |
| 2026-05-06 21:32 | 46.36372 | -72.83437 | 15799 ft | 446 kts | 69° |
| 2026-05-06 21:32 | 46.38754 | -72.75202 | 14756 ft | 439 kts | 68° |
| 2026-05-06 21:32 | 46.39929 | -72.71144 | 14259 ft | 435 kts | 68° |
| 2026-05-06 21:33 | 46.41075 | -72.67176 | 13778 ft | 431 kts | 68° |
| 2026-05-06 21:33 | 46.42224 | -72.63188 | 13263 ft | 427 kts | 68° |
| 2026-05-06 21:33 | 46.43359 | -72.59239 | 12731 ft | 422 kts | 68° |
| 2026-05-06 21:33 | 46.44480 | -72.55330 | 12249 ft | 418 kts | 68° |
| 2026-05-06 21:34 | 46.45591 | -72.51451 | 11765 ft | 413 kts | 68° |
| 2026-05-06 21:34 | 46.46684 | -72.47625 | 11382 ft | 406 kts | 68° |
| 2026-05-06 21:34 | 46.47404 | -72.45105 | 11323 ft | 396 kts | 68° |
| 2026-05-06 21:34 | 46.48426 | -72.41520 | 11224 ft | 383 kts | 68° |
| 2026-05-06 21:35 | 46.49427 | -72.38006 | 11145 ft | 370 kts | 68° |
| 2026-05-06 21:35 | 46.50394 | -72.34604 | 11062 ft | 359 kts | 68° |
| 2026-05-06 21:35 | 46.51329 | -72.31308 | 10964 ft | 347 kts | 68° |
| 2026-05-06 21:35 | 46.52236 | -72.28109 | 10916 ft | 337 kts | 68° |
| 2026-05-06 21:36 | 46.53114 | -72.25010 | 10800 ft | 328 kts | 68° |
| 2026-05-06 21:36 | 46.53970 | -72.21986 | 10641 ft | 321 kts | 68° |
| 2026-05-06 21:36 | 46.54812 | -72.19006 | 10417 ft | 317 kts | 68° |
| 2026-05-06 21:36 | 46.55646 | -72.16046 | 10132 ft | 316 kts | 68° |
| 2026-05-06 21:37 | 46.56476 | -72.13095 | 9835 ft | 315 kts | 68° |
| 2026-05-06 21:37 | 46.57305 | -72.10148 | 9555 ft | 313 kts | 68° |
| 2026-05-06 21:37 | 46.58122 | -72.07241 | 9329 ft | 309 kts | 68° |
| 2026-05-06 21:37 | 46.58919 | -72.04399 | 9083 ft | 306 kts | 68° |
| 2026-05-06 21:38 | 46.59718 | -72.01551 | 8831 ft | 303 kts | 68° |
| 2026-05-06 21:38 | 46.60385 | -71.98630 | 8553 ft | 299 kts | 77° |
| 2026-05-06 21:38 | 46.60788 | -71.95715 | 8291 ft | 297 kts | 81° |
| 2026-05-06 21:38 | 46.61134 | -71.92770 | 8020 ft | 294 kts | 81° |
| 2026-05-06 21:39 | 46.61477 | -71.89851 | 7779 ft | 291 kts | 81° |
| 2026-05-06 21:39 | 46.61828 | -71.86967 | 7513 ft | 289 kts | 80° |
| 2026-05-06 21:39 | 46.62186 | -71.84107 | 7259 ft | 286 kts | 80° |
| 2026-05-06 21:39 | 46.62538 | -71.81343 | 7013 ft | 284 kts | 79° |
| 2026-05-06 21:40 | 46.62900 | -71.78531 | 6761 ft | 281 kts | 79° |
| 2026-05-06 21:40 | 46.63260 | -71.75749 | 6514 ft | 279 kts | 79° |
| 2026-05-06 21:40 | 46.63619 | -71.72984 | 6251 ft | 276 kts | 79° |
| 2026-05-06 21:40 | 46.63975 | -71.70247 | 5963 ft | 274 kts | 79° |
| 2026-05-06 21:41 | 46.64325 | -71.67560 | 5729 ft | 270 kts | 79° |
| 2026-05-06 21:41 | 46.64666 | -71.64926 | 5652 ft | 260 kts | 79° |
| 2026-05-06 21:41 | 46.64993 | -71.62395 | 5578 ft | 250 kts | 79° |
| 2026-05-06 21:41 | 46.65361 | -71.59987 | 5449 ft | 237 kts | 67° |
| 2026-05-06 21:42 | 46.66241 | -71.58042 | 5198 ft | 226 kts | 47° |
| 2026-05-06 21:42 | 46.67290 | -71.56372 | 4990 ft | 220 kts | 44° |
| 2026-05-06 21:42 | 46.68366 | -71.54810 | 4759 ft | 216 kts | 43° |
| 2026-05-06 21:42 | 46.69429 | -71.53290 | 4522 ft | 211 kts | 43° |
| 2026-05-06 21:43 | 46.70460 | -71.51814 | 4343 ft | 204 kts | 43° |
| 2026-05-06 21:43 | 46.71457 | -71.50381 | 4113 ft | 199 kts | 43° |
| 2026-05-06 21:43 | 46.72436 | -71.48976 | 3814 ft | 197 kts | 43° |
| 2026-05-06 21:43 | 46.73410 | -71.47576 | 3498 ft | 197 kts | 44° |
| 2026-05-06 21:44 | 46.74382 | -71.46179 | 3177 ft | 196 kts | 44° |
| 2026-05-06 21:44 | 46.75344 | -71.44794 | 2908 ft | 192 kts | 44° |
| 2026-05-06 21:44 | 46.76309 | -71.43408 | 2913 ft | 196 kts | 44° |
| 2026-05-06 21:44 | 46.77253 | -71.42039 | 2925 ft | 183 kts | 45° |
| 2026-05-06 21:45 | 46.78129 | -71.40694 | 2888 ft | 185 kts | 43° |
| 2026-05-06 21:45 | 46.79255 | -71.39843 | 2848 ft | 184 kts | 4° |
| 2026-05-06 21:45 | 46.80460 | -71.40248 | 2853 ft | 184 kts | 324° |
| 2026-05-06 21:45 | 46.81199 | -71.41699 | 2830 ft | 180 kts | 284° |
| 2026-05-06 21:46 | 46.81223 | -71.43496 | 2861 ft | 179 kts | 265° |
| 2026-05-06 21:46 | 46.81029 | -71.45335 | 2848 ft | 187 kts | 249° |
| 2026-05-06 21:46 | 46.80278 | -71.46844 | 2860 ft | 184 kts | 227° |
| 2026-05-06 21:46 | 46.79364 | -71.48166 | 2841 ft | 185 kts | 225° |
| 2026-05-06 21:47 | 46.78448 | -71.49470 | 2795 ft | 182 kts | 225° |
| 2026-05-06 21:47 | 46.77546 | -71.50747 | 2790 ft | 179 kts | 225° |
| 2026-05-06 21:47 | 46.76649 | -71.52014 | 2589 ft | 180 kts | 225° |
| 2026-05-06 21:47 | 46.75751 | -71.53280 | 2307 ft | 176 kts | 225° |
| 2026-05-06 21:48 | 46.74870 | -71.54522 | 2335 ft | 179 kts | 225° |
| 2026-05-06 21:48 | 46.73965 | -71.55802 | 2355 ft | 183 kts | 225° |
| 2026-05-06 21:48 | 46.73046 | -71.57100 | 2356 ft | 184 kts | 225° |
| 2026-05-06 21:48 | 46.72126 | -71.58394 | 2347 ft | 183 kts | 225° |
| 2026-05-06 21:49 | 46.71102 | -71.59394 | 2306 ft | 181 kts | 195° |
| 2026-05-06 21:49 | 46.69866 | -71.59225 | 2320 ft | 186 kts | 154° |
| 2026-05-06 21:49 | 46.68959 | -71.57881 | 2334 ft | 192 kts | 114° |
| 2026-05-06 21:49 | 46.68774 | -71.55987 | 2350 ft | 189 kts | 84° |
| 2026-05-06 21:50 | 46.69247 | -71.54229 | 2334 ft | 187 kts | 55° |
| 2026-05-06 21:50 | 46.70032 | -71.52717 | 2346 ft | 188 kts | 51° |
| 2026-05-06 21:50 | 46.70872 | -71.51261 | 2302 ft | 190 kts | 46° |
| 2026-05-06 21:50 | 46.71797 | -71.49887 | 2081 ft | 186 kts | 43° |
| 2026-05-06 21:51 | 46.72739 | -71.48539 | 1853 ft | 192 kts | 44° |
| 2026-05-06 21:51 | 46.73676 | -71.47194 | 1609 ft | 186 kts | 44° |
| 2026-05-06 21:51 | 46.74590 | -71.45879 | 1316 ft | 179 kts | 44° |
| 2026-05-06 21:51 | 46.75434 | -71.44665 | 1046 ft | 163 kts | 44° |
| 2026-05-06 21:52 | 46.76203 | -71.43559 | 830 ft | 148 kts | 44° |
| 2026-05-06 21:52 | 46.76928 | -71.42516 | 653 ft | 149 kts | 44° |
| 2026-05-06 21:52 | 46.77667 | -71.41451 | 454 ft | 149 kts | 44° |
| 2026-05-06 21:52 | 46.78410 | -71.40391 | 269 ft | 149 kts | 44° |
| 2026-05-06 21:53 | 46.79064 | -71.39453 | 252 ft | 103 kts | 44° |
| 2026-05-06 21:53 | 46.79375 | -71.39001 | 252 ft | 40 kts | 45° |
| 2026-05-06 21:53 | 46.79489 | -71.38808 | 252 ft | 15 kts | 77° |
| 2026-05-06 21:53 | 46.79469 | -71.38651 | 249 ft | 16 kts | 106° |
| 2026-05-06 21:54 | 46.79457 | -71.38592 | 249 ft | 0 kts | 106° |
| 2026-05-06 21:54 | 46.79455 | -71.38583 | 249 ft | 2 kts | 106° |
| 2026-05-06 21:54 | 46.79451 | -71.38562 | 249 ft | 3 kts | 106° |
| 2026-05-06 21:54 | 46.79437 | -71.38538 | 248 ft | 4 kts | 132° |
| 2026-05-06 21:55 | 46.79397 | -71.38527 | 248 ft | 10 kts | 196° |
| 2026-05-06 21:55 | 46.79329 | -71.38555 | 248 ft | 11 kts | 194° |
| 2026-05-06 21:55 | 46.79273 | -71.38569 | 248 ft | 6 kts | 165° |
| 2026-05-06 21:55 | 46.79263 | -71.38516 | 248 ft | 6 kts | 98° |
| 2026-05-06 21:56 | 46.79258 | -71.38480 | 248 ft | 3 kts | 99° |
| 2026-05-06 21:56 | 46.79258 | -71.38473 | 248 ft | 0 kts | 99° |